Time;durP1;ratioP1;P1;durP2;ratioP2;P2;SDS_P1;SDS_P2;PMS_P1;PMS_P2;Temp;Humidity;BMP_temperature;BMP_pressure;BME280_temperature;BME280_humidity;BME280_pressure;Samples;Min_cycle;Max_cycle;Signal;HPM_P1;HPM_P2
2022/03/18 00:02:21;;;;;;;26.05;11.27;;;;;;;2.76;100.00;103886.66;4952522;28;20048;-68
2022/03/18 00:04:48;;;;;;;31.08;11.85;;;;;;;2.79;100.00;103900.75;4970053;28;20037;-68
2022/03/18 00:07:15;;;;;;;31.05;11.30;;;;;;;2.82;100.00;103908.72;5005948;28;20162;-68
2022/03/18 00:09:41;;;;;;;27.42;11.82;;;;;;;2.81;100.00;103904.31;5006342;28;20038;-67
2022/03/18 00:12:08;;;;;;;29.40;11.70;;;;;;;2.84;100.00;103900.94;5007780;28;20045;-68
2022/03/18 00:14:34;;;;;;;24.83;12.00;;;;;;;2.83;100.00;103900.03;5007597;28;20137;-68
2022/03/18 00:17:00;;;;;;;34.55;12.18;;;;;;;2.82;100.00;103903.50;5008902;28;20030;-69
2022/03/18 00:19:27;;;;;;;33.45;11.77;;;;;;;2.83;100.00;103894.78;5006819;28;20330;-67
2022/03/18 00:22:00;;;;;;;33.30;12.65;;;;;;;2.85;100.00;103903.56;5006848;28;20037;-67
2022/03/18 00:24:25;;;;;;;27.38;11.95;;;;;;;2.89;100.00;103903.72;5006420;28;20030;-67
2022/03/18 00:26:51;;;;;;;26.13;11.40;;;;;;;2.90;100.00;103905.47;5007544;28;20033;-68
2022/03/18 00:29:17;;;;;;;26.15;11.40;;;;;;;2.90;100.00;103906.38;5006565;28;20033;-67
2022/03/18 00:31:43;;;;;;;35.20;12.18;;;;;;;2.91;100.00;103907.25;5005499;28;20424;-68
2022/03/18 00:34:10;;;;;;;27.70;11.00;;;;;;;2.94;100.00;103912.63;5006135;28;20488;-67
2022/03/18 00:36:36;;;;;;;24.45;11.10;;;;;;;2.95;100.00;103903.94;5006049;28;20033;-68
2022/03/18 00:39:03;;;;;;;27.92;11.50;;;;;;;2.97;100.00;103912.72;5006533;28;21489;-68
2022/03/18 00:41:28;;;;;;;24.45;10.48;;;;;;;2.97;100.00;103910.09;5007110;28;20037;-68
2022/03/18 00:43:54;;;;;;;27.85;11.27;;;;;;;2.99;100.00;103908.41;5007605;28;20043;-68
2022/03/18 00:46:22;;;;;;;27.38;10.88;;;;;;;3.00;100.00;103910.22;5005286;28;20096;-68
2022/03/18 00:54:21;;;;;;;27.73;11.30;;;;;;;2.95;100.00;103917.88;5006694;28;20163;-68
2022/03/18 00:56:47;;;;;;;23.33;10.93;;;;;;;2.96;100.00;103911.81;5005962;28;20081;-68
2022/03/18 00:59:13;;;;;;;31.10;11.60;;;;;;;2.97;100.00;103920.56;5005495;28;20180;-68
2022/03/18 01:01:39;;;;;;;29.35;11.70;;;;;;;3.00;100.00;103915.47;5006252;28;20484;-68
2022/03/18 01:04:05;;;;;;;26.02;11.68;;;;;;;3.02;100.00;103916.41;5005176;28;20753;-68
2022/03/18 01:06:31;;;;;;;28.20;11.52;;;;;;;3.06;100.00;103918.28;4987454;28;20042;-68
2022/03/18 01:08:57;;;;;;;30.70;12.18;;;;;;;3.08;100.00;103920.94;5007112;28;20454;-68
2022/03/18 01:11:22;;;;;;;29.15;12.50;;;;;;;3.15;100.00;103924.69;4988955;28;20627;-68
2022/03/18 01:13:48;;;;;;;25.48;10.88;;;;;;;3.19;100.00;103921.31;5006942;28;20057;-68
2022/03/18 01:16:14;;;;;;;23.98;10.95;;;;;;;3.23;100.00;103918.00;4987833;28;20049;-68
2022/03/18 01:18:39;;;;;;;24.30;10.77;;;;;;;3.24;100.00;103922.38;4987988;28;20045;-68
2022/03/18 01:21:05;;;;;;;27.15;11.27;;;;;;;3.24;100.00;103918.06;5005484;28;20040;-68
2022/03/18 01:23:31;;;;;;;29.48;11.40;;;;;;;3.23;100.00;103925.84;5005387;28;20600;-68
2022/03/18 01:25:56;;;;;;;28.30;10.98;;;;;;;3.23;100.00;103918.88;4989483;28;20041;-68
2022/03/18 01:28:22;;;;;;;30.10;11.07;;;;;;;3.25;100.00;103918.91;5005252;28;20291;-68
2022/03/18 01:30:48;;;;;;;28.50;11.80;;;;;;;3.24;100.00;103922.38;5007419;28;20033;-68
2022/03/18 01:33:13;;;;;;;26.55;11.25;;;;;;;3.24;100.00;103925.00;5005928;28;20387;-68
2022/03/18 01:35:39;;;;;;;30.67;12.73;;;;;;;3.25;100.00;103930.31;4986904;28;20153;-68
2022/03/18 01:38:04;;;;;;;28.63;11.82;;;;;;;3.25;100.00;103934.63;5005011;28;21430;-68
2022/03/18 01:40:31;;;;;;;32.20;12.05;;;;;;;3.28;100.00;103941.72;5004043;28;20451;-68
2022/03/18 01:42:56;;;;;;;23.77;11.10;;;;;;;3.26;100.00;103936.41;5005641;28;20033;-69
2022/03/18 01:45:22;;;;;;;29.17;11.43;;;;;;;3.24;100.00;103932.84;4987462;28;20034;-68
2022/03/18 01:47:47;;;;;;;26.08;11.05;;;;;;;3.22;100.00;103934.53;5006690;28;20022;-67
2022/03/18 01:50:14;;;;;;;24.17;10.88;;;;;;;3.20;100.00;103934.47;5005890;28;20021;-67
2022/03/18 01:52:40;;;;;;;22.45;10.60;;;;;;;3.18;100.00;103940.50;5006206;28;20037;-67
2022/03/18 01:55:06;;;;;;;33.40;11.55;;;;;;;3.20;100.00;103946.66;5006201;28;20067;-69
2022/03/18 01:57:32;;;;;;;25.35;11.50;;;;;;;3.20;100.00;103941.44;4990251;28;20136;-67
2022/03/18 01:59:59;;;;;;;29.08;11.85;;;;;;;3.20;100.00;103941.44;5005908;28;20144;-68
2022/03/18 02:02:25;;;;;;;36.08;12.68;;;;;;;3.21;100.00;103945.84;5005047;28;20040;-68
2022/03/18 02:04:50;;;;;;;28.45;12.23;;;;;;;3.23;100.00;103944.19;5003510;28;21399;-68
2022/03/18 02:07:17;;;;;;;25.15;11.77;;;;;;;3.25;100.00;103937.25;5005773;28;20040;-67
2022/03/18 02:09:43;;;;;;;27.90;12.38;;;;;;;3.25;100.00;103946.03;5006431;28;20122;-68
2022/03/18 02:12:12;;;;;;;28.95;12.25;;;;;;;3.24;100.00;103948.56;4988180;28;20093;-68
2022/03/18 02:14:38;;;;;;;31.00;11.52;;;;;;;3.24;100.00;103943.34;5005425;28;20034;-68
2022/03/18 02:17:06;;;;;;;23.98;10.68;;;;;;;3.21;100.00;103943.25;4987735;28;20129;-68
2022/03/18 02:19:32;;;;;;;25.48;10.80;;;;;;;3.19;100.00;103950.13;5004955;28;20037;-68
2022/03/18 02:21:58;;;;;;;24.65;10.65;;;;;;;3.21;100.00;103949.34;5003244;28;20041;-69
2022/03/18 02:24:24;;;;;;;27.80;11.20;;;;;;;3.23;100.00;103952.03;4992084;28;20100;-67
2022/03/18 02:26:54;;;;;;;23.33;11.15;;;;;;;3.24;100.00;103953.81;4987294;28;20079;-68
2022/03/18 02:29:21;;;;;;;30.05;11.50;;;;;;;3.24;100.00;103957.34;4987264;28;20026;-67
2022/03/18 02:31:47;;;;;;;24.33;10.98;;;;;;;3.27;100.00;103964.38;5004344;28;20060;-67
2022/03/18 02:34:13;;;;;;;28.95;12.18;;;;;;;3.29;100.00;103972.31;5005438;28;20064;-68
2022/03/18 02:36:39;;;;;;;28.38;12.00;;;;;;;3.31;100.00;103974.13;4984819;28;20029;-68
2022/03/18 02:39:04;;;;;;;28.08;11.35;;;;;;;3.30;100.00;103971.47;5004690;28;20185;-68
2022/03/18 02:41:32;;;;;;;27.85;11.75;;;;;;;3.28;100.00;103966.19;5004239;28;20637;-68
2022/03/18 02:43:58;;;;;;;29.10;11.07;;;;;;;3.28;100.00;103973.13;5004331;28;20183;-68
2022/03/18 02:46:24;;;;;;;30.25;10.60;;;;;;;3.28;100.00;103971.44;5000793;28;20198;-68
2022/03/18 02:48:49;;;;;;;26.15;10.32;;;;;;;3.29;100.00;103977.53;5005311;28;20385;-68
2022/03/18 02:51:15;;;;;;;26.35;10.23;;;;;;;3.32;100.00;103969.81;5005135;28;20075;-68
2022/03/18 02:53:40;;;;;;;24.45;9.25;;;;;;;3.34;100.00;103960.25;5003984;28;20598;-68
2022/03/18 02:56:07;;;;;;;23.52;9.45;;;;;;;3.37;100.00;103956.03;5004261;28;20503;-68
2022/03/18 02:58:35;;;;;;;22.05;8.98;;;;;;;3.40;100.00;103961.34;5003294;28;20051;-68
2022/03/18 03:01:01;;;;;;;16.15;8.30;;;;;;;3.41;100.00;103967.50;5005824;28;20128;-68
2022/03/18 03:03:27;;;;;;;18.38;8.00;;;;;;;3.45;100.00;103984.22;5004614;28;20127;-68
2022/03/18 03:08:37;;;;;;;20.52;7.78;;;;;;;3.48;100.00;103974.72;5005176;28;20044;-68
2022/03/18 03:11:02;;;;;;;17.67;7.97;;;;;;;3.50;100.00;103977.41;5003445;28;20033;-69
2022/03/18 03:13:28;;;;;;;17.13;7.88;;;;;;;3.50;100.00;103980.91;5005189;28;20048;-68
2022/03/18 03:15:53;;;;;;;21.75;7.40;;;;;;;3.51;100.00;103981.81;5005371;28;20033;-69
2022/03/18 03:18:19;;;;;;;18.23;7.72;;;;;;;3.50;100.00;103973.03;5005975;28;20038;-68
2022/03/18 03:20:45;;;;;;;18.17;7.07;;;;;;;3.50;100.00;103974.78;4971943;28;20038;-69
2022/03/18 03:23:10;;;;;;;16.63;7.43;;;;;;;3.48;100.00;103979.09;5004817;28;20080;-68
2022/03/18 03:25:36;;;;;;;17.70;7.28;;;;;;;3.47;100.00;103977.28;5004680;28;20034;-69
2022/03/18 03:28:01;;;;;;;17.75;7.25;;;;;;;3.47;100.00;103988.66;5004308;28;20038;-69
2022/03/18 03:30:27;;;;;;;18.90;6.97;;;;;;;3.47;100.00;103980.81;5003252;28;20495;-69
2022/03/18 03:32:53;;;;;;;17.08;7.68;;;;;;;3.48;100.00;103979.09;4985273;28;20124;-69
2022/03/18 03:35:19;;;;;;;12.40;7.15;;;;;;;3.49;100.00;103991.34;5003580;28;20040;-68
2022/03/18 03:37:45;;;;;;;14.60;6.82;;;;;;;3.49;100.00;103997.47;4987734;28;20065;-68
2022/03/18 03:40:13;;;;;;;12.77;6.68;;;;;;;3.48;100.00;104000.06;5005612;28;20057;-68
2022/03/18 03:42:40;;;;;;;15.82;7.53;;;;;;;3.49;100.00;104001.84;4986341;28;20040;-68
2022/03/18 03:45:07;;;;;;;14.52;7.80;;;;;;;3.48;100.00;104007.91;5004161;28;20072;-68
2022/03/18 03:47:32;;;;;;;14.25;7.13;;;;;;;3.50;100.00;104009.72;5005764;28;20033;-68
2022/03/18 03:49:58;;;;;;;14.80;7.50;;;;;;;3.52;100.00;104017.66;5004502;28;20585;-69
2022/03/18 03:52:23;;;;;;;19.17;7.88;;;;;;;3.55;100.00;104023.00;5003008;28;20032;-69
2022/03/18 03:54:49;;;;;;;17.33;7.13;;;;;;;3.59;100.00;104030.13;5004340;28;20029;-68
2022/03/18 03:57:14;;;;;;;13.00;8.30;;;;;;;3.62;100.00;104024.09;5003072;28;20037;-69
2022/03/18 03:59:40;;;;;;;17.42;8.07;;;;;;;3.64;100.00;104025.94;4987232;28;20049;-69
2022/03/18 04:02:05;;;;;;;14.48;7.60;;;;;;;3.69;100.00;104036.56;4988876;28;20799;-68
2022/03/18 04:04:32;;;;;;;14.60;8.77;;;;;;;3.71;100.00;104034.88;5004879;28;20030;-69
2022/03/18 04:06:58;;;;;;;17.75;8.38;;;;;;;3.73;100.00;104027.09;4991016;28;20033;-69
2022/03/18 04:09:23;;;;;;;19.27;8.70;;;;;;;3.74;100.00;104028.88;5004172;28;20025;-69
2022/03/18 04:11:49;;;;;;;12.63;8.10;;;;;;;3.74;100.00;104036.72;5004171;28;20404;-68
2022/03/18 04:14:14;;;;;;;17.00;9.07;;;;;;;3.74;100.00;104044.59;4986596;28;20113;-68
2022/03/18 04:16:40;;;;;;;16.75;8.75;;;;;;;3.72;100.00;104033.16;4975818;28;20116;-68
2022/03/18 04:19:05;;;;;;;17.67;9.00;;;;;;;3.69;100.00;104040.94;5004816;28;20096;-68
2022/03/18 04:21:31;;;;;;;24.23;9.75;;;;;;;3.64;100.00;104044.28;5003141;28;20109;-68
2022/03/18 04:23:56;;;;;;;18.02;10.07;;;;;;;3.60;100.00;104045.00;5004226;28;20038;-68
2022/03/18 04:26:22;;;;;;;19.95;9.65;;;;;;;3.57;100.00;104052.78;4988537;28;20388;-69
2022/03/18 04:28:48;;;;;;;15.02;10.48;;;;;;;3.53;100.00;104048.25;5004105;28;20030;-68
2022/03/18 04:31:13;;;;;;;20.23;10.88;;;;;;;3.50;100.00;104045.53;5004279;28;20482;-69
2022/03/18 04:33:39;;;;;;;16.48;10.38;;;;;;;3.45;100.00;104049.69;4986674;28;20099;-68
2022/03/18 04:36:04;;;;;;;23.98;11.00;;;;;;;3.39;100.00;104048.63;4986245;28;20033;-68
2022/03/18 04:38:30;;;;;;;16.10;11.05;;;;;;;3.33;100.00;104051.03;5003840;28;21389;-68
2022/03/18 04:40:55;;;;;;;21.38;11.98;;;;;;;3.26;100.00;104054.25;5002997;28;20052;-68
2022/03/18 04:43:21;;;;;;;19.75;11.85;;;;;;;3.19;100.00;104055.78;5004074;28;20503;-69
2022/03/18 04:45:47;;;;;;;19.60;12.18;;;;;;;3.15;100.00;104066.97;5003965;28;20687;-69
2022/03/18 04:48:12;;;;;;;20.90;11.20;;;;;;;3.07;100.00;104071.94;5003631;28;20041;-68
2022/03/18 04:50:38;;;;;;;17.35;11.82;;;;;;;3.01;100.00;104086.50;4985871;28;20608;-67
2022/03/18 04:53:03;;;;;;;21.70;11.93;;;;;;;2.95;100.00;104089.78;4987522;28;20515;-67
2022/03/18 04:55:29;;;;;;;23.10;12.15;;;;;;;2.87;100.00;104089.47;5006998;28;20037;-67
2022/03/18 04:57:55;;;;;;;20.70;12.60;;;;;;;2.81;100.00;104091.84;4988925;28;20554;-68
2022/03/18 05:00:24;;;;;;;21.10;12.93;;;;;;;2.74;100.00;104093.34;4991643;28;20037;-68
2022/03/18 05:02:50;;;;;;;20.50;12.70;;;;;;;2.67;100.00;104091.31;5008568;28;20045;-67
2022/03/18 05:05:19;;;;;;;17.33;11.88;;;;;;;2.58;100.00;104083.97;4990473;28;20594;-67
2022/03/18 05:07:48;;;;;;;19.40;13.10;;;;;;;2.53;100.00;104098.59;4989990;28;20041;-67
2022/03/18 05:10:14;;;;;;;15.68;12.07;;;;;;;2.47;100.00;104088.78;4973299;28;20042;-68
2022/03/18 05:12:40;;;;;;;20.10;12.52;;;;;;;2.40;100.00;104098.09;5006483;28;20049;-68
2022/03/18 05:15:10;;;;;;;21.20;13.98;;;;;;;2.34;100.00;104103.06;5002504;28;20064;-68
2022/03/18 05:17:36;;;;;;;19.52;13.25;;;;;;;2.27;100.00;104109.78;4980785;28;20137;-68
2022/03/18 05:20:04;;;;;;;23.10;15.27;;;;;;;2.23;100.00;104112.22;4989004;28;20037;-69
2022/03/18 05:22:30;;;;;;;21.05;13.82;;;;;;;2.18;100.00;104109.38;4991101;28;20041;-68
2022/03/18 05:24:57;;;;;;;25.05;14.52;;;;;;;2.13;100.00;104096.09;5007620;28;20104;-68
2022/03/18 05:27:23;;;;;;;22.52;14.30;;;;;;;2.09;100.00;104099.44;4991378;28;20504;-68
2022/03/18 05:29:49;;;;;;;18.80;12.93;;;;;;;2.06;100.00;104101.03;5006050;28;20033;-68
2022/03/18 05:32:15;;;;;;;23.63;13.50;;;;;;;2.01;100.00;104113.88;5007854;28;20440;-68
2022/03/18 05:34:41;;;;;;;24.00;17.33;;;;;;;1.97;100.00;104118.09;4987031;28;20140;-68
2022/03/18 05:37:07;;;;;;;22.50;16.20;;;;;;;1.93;100.00;104121.41;4977279;28;20602;-68
2022/03/18 05:39:33;;;;;;;25.17;16.88;;;;;;;1.90;100.00;104126.47;4993323;28;20038;-68
2022/03/18 05:41:59;;;;;;;22.40;15.10;;;;;;;1.87;100.00;104131.59;4991893;28;20037;-68
2022/03/18 05:44:24;;;;;;;28.10;19.50;;;;;;;1.83;100.00;104130.56;5006567;28;20038;-68
2022/03/18 05:46:51;;;;;;;24.58;15.90;;;;;;;1.82;100.00;104139.22;5006402;28;20041;-68
2022/03/18 05:49:19;;;;;;;24.20;17.70;;;;;;;1.78;100.00;104136.44;5003815;28;20393;-68
2022/03/18 05:51:46;;;;;;;28.65;18.40;;;;;;;1.75;100.00;104143.28;5002709;28;20044;-68
2022/03/18 05:54:12;;;;;;;26.38;18.17;;;;;;;1.73;100.00;104144.94;5005278;28;20048;-68
2022/03/18 05:56:53;;;;;;;23.35;18.67;;;;;;;1.72;100.00;104147.47;5004640;28;20393;-68
2022/03/18 05:59:30;;;;;;;27.33;18.77;;;;;;;1.70;100.00;104150.00;4972582;28;20141;-68
2022/03/18 06:01:58;;;;;;;26.40;17.60;;;;;;;1.69;100.00;104150.84;5006919;28;20037;-68
2022/03/18 06:04:24;;;;;;;26.25;18.52;;;;;;;1.67;100.00;104149.88;5005400;28;20218;-69
2022/03/18 06:06:50;;;;;;;28.23;18.73;;;;;;;1.66;100.00;104144.59;4988632;28;20033;-68
2022/03/18 06:12:01;;;;;;;26.77;19.85;;;;;;;1.65;100.00;104142.81;5002340;28;20191;-68
2022/03/18 06:14:28;;;;;;;27.40;20.73;;;;;;;1.65;100.00;104153.25;4986943;28;20034;-69
2022/03/18 06:16:56;;;;;;;30.45;20.13;;;;;;;1.64;100.00;104168.03;5007738;28;20039;-69
2022/03/18 06:19:22;;;;;;;25.55;19.45;;;;;;;1.62;100.00;104167.97;5004323;28;20048;-69
2022/03/18 06:21:48;;;;;;;25.10;19.88;;;;;;;1.63;100.00;104180.19;5005782;28;20103;-69
2022/03/18 06:24:14;;;;;;;25.67;20.10;;;;;;;1.64;100.00;104183.72;5005602;28;20069;-69
2022/03/18 06:26:40;;;;;;;25.55;19.92;;;;;;;1.65;100.00;104185.50;4989162;28;20029;-68
2022/03/18 06:29:06;;;;;;;32.47;22.48;;;;;;;1.66;100.00;104187.28;4986615;28;20160;-68
2022/03/18 06:31:33;;;;;;;29.98;22.00;;;;;;;1.68;100.00;104192.59;4985319;28;20075;-69
2022/03/18 06:33:59;;;;;;;31.23;21.52;;;;;;;1.69;100.00;104189.16;5004914;28;20057;-69
2022/03/18 06:36:25;;;;;;;28.17;22.92;;;;;;;1.72;100.00;104194.50;4988553;28;20121;-69
2022/03/18 06:38:50;;;;;;;38.00;25.45;;;;;;;1.76;100.00;104207.75;4972830;28;20083;-69
2022/03/18 06:41:18;;;;;;;33.13;25.23;;;;;;;1.81;100.00;104189.72;4986395;28;20088;-67
2022/03/18 06:43:43;;;;;;;39.08;25.58;;;;;;;1.94;100.00;104191.16;5004559;28;20096;-68
2022/03/18 06:46:11;;;;;;;31.15;22.25;;;;;;;1.99;100.00;104193.94;5004471;28;20489;-68
2022/03/18 06:48:36;;;;;;;26.33;22.13;;;;;;;2.01;100.00;104193.19;4987176;28;20069;-68
2022/03/18 06:51:02;;;;;;;25.05;20.50;;;;;;;2.05;100.00;104193.34;5006373;28;20121;-68
2022/03/18 06:53:28;;;;;;;26.98;20.92;;;;;;;2.09;100.00;104205.72;5003888;28;20033;-69
2022/03/18 06:55:53;;;;;;;34.42;25.13;;;;;;;2.13;100.00;104207.66;5003610;28;20117;-68
2022/03/18 06:58:19;;;;;;;32.13;23.48;;;;;;;2.20;100.00;104220.16;5005423;28;20084;-68
2022/03/18 07:00:45;;;;;;;33.65;24.23;;;;;;;2.25;100.00;104229.13;5001366;28;20045;-68
2022/03/18 07:03:10;;;;;;;31.25;25.23;;;;;;;2.30;100.00;104231.91;5005661;28;20029;-68
2022/03/18 07:05:36;;;;;;;36.33;24.10;;;;;;;2.36;100.00;104240.03;5002308;28;20033;-69
2022/03/18 07:08:01;;;;;;;54.90;24.98;;;;;;;2.42;100.00;104244.63;5000406;28;20029;-68
2022/03/18 07:10:27;;;;;;;57.47;28.33;;;;;;;2.51;100.00;104242.41;4985184;28;20048;-69
2022/03/18 07:12:52;;;;;;;47.58;28.35;;;;;;;2.61;100.00;104245.44;5004203;28;20539;-69
2022/03/18 07:15:18;;;;;;;44.70;28.67;;;;;;;2.71;100.00;104250.22;5002138;28;20083;-69
2022/03/18 07:17:58;;;;;;;45.25;28.30;;;;;;;2.80;100.00;104248.00;5001559;28;20041;-69
2022/03/18 07:20:28;;;;;;;43.88;28.15;;;;;;;2.93;100.00;104252.00;5000718;28;20559;-69
2022/03/18 07:23:08;;;;;;;40.58;27.33;;;;;;;3.08;100.00;104258.69;5001599;28;20141;-67
2022/03/18 07:25:36;;;;;;;42.33;26.90;;;;;;;3.17;100.00;104260.81;4988405;28;20170;-66
2022/03/18 07:28:02;;;;;;;37.00;24.13;;;;;;;3.23;100.00;104266.28;5006361;28;20586;-68
2022/03/18 07:30:28;;;;;;;36.05;24.08;;;;;;;3.28;100.00;104272.63;5005883;28;20132;-67
2022/03/18 07:32:53;;;;;;;48.88;26.70;;;;;;;3.36;100.00;104276.44;5004973;28;20537;-68
2022/03/18 07:35:19;;;;;;;45.40;26.17;;;;;;;3.51;100.00;104277.88;5002732;28;20046;-68
2022/03/18 07:37:45;;;;;;;49.50;26.98;;;;;;;3.65;100.00;104278.44;5006621;28;20125;-69
2022/03/18 07:40:11;;;;;;;55.95;27.20;;;;;;;3.80;100.00;104275.47;5005939;28;20033;-69
2022/03/18 07:42:56;;;;;;;48.80;26.75;;;;;;;3.94;100.00;104287.38;5005704;28;20052;-69
2022/03/18 07:45:27;;;;;;;41.63;24.80;;;;;;;4.14;100.00;104286.34;4985212;28;20299;-69
2022/03/18 07:47:53;;;;;;;44.92;24.42;;;;;;;4.31;100.00;104289.59;4984731;28;20269;-69
2022/03/18 07:50:21;;;;;;;47.90;23.75;;;;;;;4.47;100.00;104296.28;5004329;28;20033;-69
2022/03/18 07:52:48;;;;;;;44.60;25.30;;;;;;;4.59;100.00;104295.81;5001814;28;20400;-69
2022/03/18 07:55:13;;;;;;;40.92;22.88;;;;;;;4.71;100.00;104303.22;5001967;28;20045;-69
2022/03/18 07:57:39;;;;;;;39.95;23.42;;;;;;;4.82;100.00;104312.38;4997096;28;20464;-68
2022/03/18 08:00:05;;;;;;;41.50;22.67;;;;;;;4.93;100.00;104307.50;4989367;28;20476;-68
2022/03/18 08:02:31;;;;;;;39.53;21.83;;;;;;;5.08;100.00;104308.84;4985843;28;20275;-68
2022/03/18 08:04:56;;;;;;;43.15;21.83;;;;;;;5.25;100.00;104320.81;5003461;28;20103;-68
2022/03/18 08:07:22;;;;;;;35.97;20.45;;;;;;;5.35;100.00;104319.38;5001721;28;20109;-67
2022/03/18 08:09:47;;;;;;;33.58;19.65;;;;;;;5.46;100.00;104326.69;5003874;28;20115;-72
2022/03/18 08:12:13;;;;;;;43.15;20.45;;;;;;;5.57;100.00;104326.19;4998628;28;20078;-67
2022/03/18 08:14:39;;;;;;;40.25;18.05;;;;;;;5.70;100.00;104329.19;4983618;28;20080;-67
2022/03/18 08:17:05;;;;;;;33.22;17.63;;;;;;;5.84;100.00;104329.66;4983390;28;20722;-67
2022/03/18 08:19:30;;;;;;;34.50;17.20;;;;;;;5.92;100.00;104335.13;4983460;28;20104;-68
2022/03/18 08:22:00;;;;;;;38.85;17.10;;;;;;;6.01;100.00;104331.88;4984512;28;20789;-68
2022/03/18 08:24:26;;;;;;;41.35;16.95;;;;;;;6.08;100.00;104337.41;4999476;28;20029;-68
2022/03/18 08:26:51;;;;;;;40.10;17.17;;;;;;;6.18;100.00;104343.84;4985315;28;20038;-68
2022/03/18 08:29:17;;;;;;;42.30;17.88;;;;;;;6.26;100.00;104351.94;4987547;28;20481;-68
2022/03/18 08:31:42;;;;;;;35.45;17.50;;;;;;;6.34;100.00;104355.69;4984041;28;20041;-68
2022/03/18 08:34:08;;;;;;;32.65;16.38;;;;;;;6.43;100.00;104359.44;4987276;28;20709;-68
2022/03/18 08:36:33;;;;;;;35.38;17.58;;;;;;;6.52;100.00;104360.59;4987008;28;20126;-68
2022/03/18 08:38:59;;;;;;;34.60;16.25;;;;;;;6.62;100.00;104363.47;4981230;28;20034;-69
2022/03/18 08:41:24;;;;;;;34.25;15.95;;;;;;;6.71;100.00;104360.19;4971413;28;20046;-69
2022/03/18 08:43:50;;;;;;;35.65;16.42;;;;;;;6.82;100.00;104368.38;5000873;28;20040;-68
2022/03/18 08:46:15;;;;;;;30.80;15.73;;;;;;;6.89;100.00;104371.25;4985748;28;20459;-69
2022/03/18 08:48:43;;;;;;;36.60;16.38;;;;;;;6.98;100.00;104377.59;4985351;28;20061;-69
2022/03/18 08:51:10;;;;;;;34.05;16.05;;;;;;;7.06;100.00;104378.69;4986479;28;20101;-71
2022/03/18 08:53:36;;;;;;;45.88;17.77;;;;;;;7.19;100.00;104385.16;4985790;28;20589;-69
2022/03/18 08:56:02;;;;;;;33.80;15.00;;;;;;;7.29;100.00;104389.81;4986351;28;20097;-68
2022/03/18 08:58:28;;;;;;;31.67;10.13;;;;;;;7.41;100.00;104389.22;4985151;28;20052;-68
2022/03/18 09:00:53;;;;;;;21.35;9.80;;;;;;;7.50;100.00;104382.38;4984577;28;20026;-68
2022/03/18 09:03:19;;;;;;;27.10;9.95;;;;;;;7.60;100.00;104387.03;4985870;28;20034;-68
2022/03/18 09:05:44;;;;;;;30.48;10.88;;;;;;;7.71;100.00;104390.84;4985470;28;20436;-68
2022/03/18 09:08:10;;;;;;;27.88;9.48;;;;;;;7.80;100.00;104394.53;4987505;28;20436;-68
2022/03/18 09:10:35;;;;;;;40.83;10.90;;;;;;;7.87;100.00;104396.47;4984968;28;20061;-68
2022/03/18 09:13:01;;;;;;;27.25;10.23;;;;;;;7.89;100.00;104405.28;4998966;28;20504;-68
2022/03/18 09:15:29;;;;;;;27.42;10.52;;;;;;;7.91;100.00;104408.88;5006651;28;20156;-69
2022/03/18 09:17:54;;;;;;;23.98;9.68;;;;;;;7.94;100.00;104419.47;4988481;28;20064;-68
2022/03/18 09:20:20;;;;;;;31.25;9.98;;;;;;;8.02;100.00;104419.66;5005309;28;20117;-68
2022/03/18 09:22:45;;;;;;;29.83;9.70;;;;;;;8.07;100.00;104425.03;5006364;28;20037;-68
2022/03/18 09:25:12;;;;;;;29.40;11.10;;;;;;;8.14;100.00;104416.41;5003084;28;20087;-68
2022/03/18 09:27:37;;;;;;;31.88;10.55;;;;;;;8.19;100.00;104424.41;5005836;28;20489;-69
2022/03/18 09:30:11;;;;;;;29.60;10.73;;;;;;;8.21;100.00;104418.31;5005868;28;20044;-70
2022/03/18 09:32:38;;;;;;;31.05;10.57;;;;;;;8.27;100.00;104420.19;5001452;28;20041;-68
2022/03/18 09:35:05;;;;;;;25.65;10.32;;;;;;;8.31;100.00;104421.16;5005164;28;20175;-68
2022/03/18 09:37:31;;;;;;;26.95;10.18;;;;;;;8.33;100.00;104422.09;5004430;28;20262;-68
2022/03/18 09:39:56;;;;;;;27.92;9.63;;;;;;;8.37;100.00;104427.47;5003261;28;20037;-68
2022/03/18 09:42:22;;;;;;;26.63;9.10;;;;;;;8.42;100.00;104432.84;4986315;28;20124;-69
2022/03/18 09:44:48;;;;;;;23.42;9.73;;;;;;;8.47;100.00;104425.91;5005512;28;20033;-69
2022/03/18 09:47:13;;;;;;;23.23;9.02;;;;;;;8.53;100.00;104433.09;4992019;28;20037;-72
2022/03/18 09:49:43;;;;;;;33.15;10.40;;;;;;;8.60;100.00;104442.91;5008303;28;20052;-71
2022/03/18 09:52:10;;;;;;;25.38;9.68;;;;;;;8.68;100.00;104451.03;5001316;28;20033;-71
2022/03/18 09:54:35;;;;;;;25.50;9.48;;;;;;;8.77;100.00;104445.91;4987459;28;20034;-71
2022/03/18 09:57:03;;;;;;;27.08;9.85;;;;;;;8.82;100.00;104454.81;5005609;28;20037;-71
2022/03/18 09:59:31;;;;;;;25.80;9.15;;;;;;;8.86;100.00;104457.50;5006374;28;20061;-72
2022/03/18 10:02:30;;;;;;;25.33;9.82;;;;;;;8.91;100.00;104458.50;4989165;28;20033;-72
2022/03/18 10:04:57;;;;;;;22.63;9.63;;;;;;;8.95;100.00;104461.22;4943751;28;20045;-72
2022/03/18 10:07:35;;;;;;;28.00;9.07;;;;;;;9.04;100.00;104454.34;4986540;28;20143;-72
2022/03/18 10:10:15;;;;;;;26.38;10.00;;;;;;;9.09;100.00;104458.84;4988283;28;20567;-72
2022/03/18 10:12:44;;;;;;;25.25;9.57;;;;;;;9.17;100.00;104458.09;4988844;28;20404;-72
2022/03/18 10:15:12;;;;;;;32.00;9.63;;;;;;;9.19;100.00;104465.22;5014395;28;20040;-72
2022/03/18 10:17:43;;;;;;;24.38;8.93;;;;;;;9.21;100.00;104458.19;4998428;28;20498;-71
2022/03/18 10:20:23;;;;;;;29.75;10.30;;;;;;;9.27;100.00;104457.44;4996386;28;20515;-73
2022/03/18 10:22:50;;;;;;;25.75;11.02;;;;;;;9.34;100.00;104464.59;5005038;28;20044;-72
2022/03/18 10:25:34;;;;;;;27.23;11.60;;;;;;;9.41;100.00;104455.00;5006237;28;20042;-76
2022/03/18 10:28:00;;;;;;;25.48;9.20;;;;;;;9.45;100.00;104463.88;5003241;28;20049;-76
2022/03/18 10:30:26;;;;;;;24.33;9.10;;;;;;;9.49;100.00;104478.97;5005764;28;20121;-77
2022/03/18 10:32:53;;;;;;;25.05;8.82;;;;;;;9.54;100.00;104474.63;5001605;28;20034;-77
2022/03/18 10:38:30;;;;;;;26.95;9.57;;;;;;;9.60;100.00;104482.66;5002443;28;20116;-77
2022/03/18 10:40:57;;;;;;;25.65;8.93;;;;;;;9.63;100.00;104479.16;4959223;28;20057;-77
2022/03/18 10:43:22;;;;;;;22.75;8.52;;;;;;;9.68;100.00;104479.25;4955523;28;20191;-74
2022/03/18 10:46:05;;;;;;;22.95;8.95;;;;;;;9.74;100.00;104479.34;4974520;28;20037;-75
2022/03/18 10:49:11;;;;;;;21.40;8.30;;;;;;;9.82;100.00;104483.03;4989194;28;20048;-75
2022/03/18 10:51:40;;;;;;;24.48;8.23;;;;;;;9.87;100.00;104483.97;5003059;28;20049;-76
2022/03/18 10:54:05;;;;;;;17.48;8.05;;;;;;;9.90;100.00;104486.69;4987181;28;20042;-76
2022/03/18 10:56:59;;;;;;;23.70;8.05;;;;;;;9.95;99.90;104489.41;5005231;28;20671;-76
2022/03/18 10:59:27;;;;;;;20.08;7.50;;;;;;;10.00;99.61;104486.81;5003069;28;20038;-76
2022/03/18 11:01:56;;;;;;;27.02;7.50;;;;;;;10.06;98.55;104494.84;5005509;28;20088;-76
2022/03/18 11:04:23;;;;;;;17.05;7.03;;;;;;;10.11;98.63;104493.16;5005499;28;20033;-76
2022/03/18 11:11:07;;;;;;;25.08;7.35;;;;;;;10.17;98.35;104490.63;5003193;28;20030;-76
2022/03/18 11:12:24;;;;;;;17.08;6.05;;;;;;;10.21;97.36;104496.84;5001466;28;20133;-76
2022/03/18 11:14:53;;;;;;;17.60;6.03;;;;;;;10.21;97.28;104491.56;5005086;28;20465;-76
2022/03/18 11:17:21;;;;;;;18.05;6.47;;;;;;;10.27;97.23;104493.38;4971021;28;20486;-76
2022/03/18 11:19:47;;;;;;;23.60;5.95;;;;;;;10.31;96.63;104487.28;4974461;28;20439;-76
2022/03/18 11:22:14;;;;;;;21.00;6.65;;;;;;;10.36;96.38;104490.88;4997051;28;20033;-75
2022/03/18 11:24:40;;;;;;;19.10;6.65;;;;;;;10.41;95.68;104488.28;4967725;28;20044;-72
2022/03/18 11:27:06;;;;;;;24.33;6.75;;;;;;;10.47;96.20;104491.06;4970383;28;20037;-72
2022/03/18 11:29:33;;;;;;;25.40;6.70;;;;;;;10.53;95.99;104495.53;4986068;28;20040;-72